sensor_id;sensor_type;location;lat;lon;timestamp;temperature;humidity
16674;DHT22;8450;52.654;10.326;2023-02-01T08:19:01;3.50;99.90
16674;DHT22;8450;52.654;10.326;2023-02-01T08:21:28;3.50;99.90
16674;DHT22;8450;52.654;10.326;2023-02-01T08:24:03;3.50;99.90
16674;DHT22;8450;52.654;10.326;2023-02-01T08:26:29;3.50;99.90
16674;DHT22;8450;52.654;10.326;2023-02-01T08:31:20;3.60;99.90
16674;DHT22;8450;52.654;10.326;2023-02-01T08:33:58;3.60;99.90
16674;DHT22;8450;52.654;10.326;2023-02-01T08:36:25;3.60;99.90
16674;DHT22;8450;52.654;10.326;2023-02-01T08:38:51;3.60;99.90
16674;DHT22;8450;52.654;10.326;2023-02-01T08:41:20;3.70;99.90
16674;DHT22;8450;52.654;10.326;2023-02-01T08:43:46;3.70;99.90
16674;DHT22;8450;52.654;10.326;2023-02-01T08:46:13;3.70;99.90
16674;DHT22;8450;52.654;10.326;2023-02-01T08:48:39;3.70;99.90
16674;DHT22;8450;52.654;10.326;2023-02-01T08:51:07;3.70;99.90
16674;DHT22;8450;52.654;10.326;2023-02-01T08:53:33;3.80;99.90
16674;DHT22;8450;52.654;10.326;2023-02-01T08:55:58;3.80;99.90
16674;DHT22;8450;52.654;10.326;2023-02-01T08:58:24;3.80;99.90
16674;DHT22;8450;52.654;10.326;2023-02-01T09:00:50;3.80;99.90
16674;DHT22;8450;52.654;10.326;2023-02-01T09:03:16;3.80;99.90
16674;DHT22;8450;52.654;10.326;2023-02-01T09:05:42;3.80;99.90
16674;DHT22;8450;52.654;10.326;2023-02-01T09:08:08;3.80;99.90
16674;DHT22;8450;52.654;10.326;2023-02-01T09:10:34;3.90;99.90
16674;DHT22;8450;52.654;10.326;2023-02-01T09:13:00;3.90;99.90
16674;DHT22;8450;52.654;10.326;2023-02-01T09:15:26;3.90;99.90
16674;DHT22;8450;52.654;10.326;2023-02-01T09:17:51;3.90;99.90
16674;DHT22;8450;52.654;10.326;2023-02-01T09:20:17;3.90;99.90
16674;DHT22;8450;52.654;10.326;2023-02-01T09:22:44;4.00;99.90
16674;DHT22;8450;52.654;10.326;2023-02-01T09:25:09;4.00;99.90
16674;DHT22;8450;52.654;10.326;2023-02-01T09:27:35;4.00;99.90
16674;DHT22;8450;52.654;10.326;2023-02-01T09:30:02;4.10;99.90
16674;DHT22;8450;52.654;10.326;2023-02-01T09:32:27;4.10;99.90
16674;DHT22;8450;52.654;10.326;2023-02-01T09:34:53;4.10;99.90
16674;DHT22;8450;52.654;10.326;2023-02-01T09:37:19;4.10;99.90
16674;DHT22;8450;52.654;10.326;2023-02-01T09:39:44;4.10;99.90
16674;DHT22;8450;52.654;10.326;2023-02-01T09:42:21;4.10;99.90
16674;DHT22;8450;52.654;10.326;2023-02-01T09:47:35;4.10;99.90
16674;DHT22;8450;52.654;10.326;2023-02-01T09:50:20;4.10;99.90
16674;DHT22;8450;52.654;10.326;2023-02-01T09:53:02;4.10;99.90
16674;DHT22;8450;52.654;10.326;2023-02-01T09:55:32;4.10;99.90
16674;DHT22;8450;52.654;10.326;2023-02-01T09:58:24;4.00;99.90
16674;DHT22;8450;52.654;10.326;2023-02-01T10:00:55;4.10;99.90
16674;DHT22;8450;52.654;10.326;2023-02-01T10:03:25;4.10;99.90
16674;DHT22;8450;52.654;10.326;2023-02-01T10:08:55;4.10;99.90
16674;DHT22;8450;52.654;10.326;2023-02-01T10:14:25;4.20;99.90
16674;DHT22;8450;52.654;10.326;2023-02-01T10:17:25;4.20;99.90
16674;DHT22;8450;52.654;10.326;2023-02-01T10:25:44;4.40;99.90
16674;DHT22;8450;52.654;10.326;2023-02-01T10:28:15;4.50;99.90
16674;DHT22;8450;52.654;10.326;2023-02-01T10:30:47;4.60;99.90
16674;DHT22;8450;52.654;10.326;2023-02-01T10:35:41;4.80;99.90
16674;DHT22;8450;52.654;10.326;2023-02-01T10:38:25;4.90;99.90
16674;DHT22;8450;52.654;10.326;2023-02-01T10:40:53;5.10;99.90
16674;DHT22;8450;52.654;10.326;2023-02-01T10:43:20;5.20;99.90
16674;DHT22;8450;52.654;10.326;2023-02-01T10:45:46;5.20;99.90
16674;DHT22;8450;52.654;10.326;2023-02-01T10:48:11;5.30;99.90
16674;DHT22;8450;52.654;10.326;2023-02-01T10:50:53;5.30;99.90
16674;DHT22;8450;52.654;10.326;2023-02-01T10:56:09;5.40;99.90
16674;DHT22;8450;52.654;10.326;2023-02-01T10:58:36;5.40;99.90
16674;DHT22;8450;52.654;10.326;2023-02-01T11:01:09;5.40;99.90
16674;DHT22;8450;52.654;10.326;2023-02-01T11:06:30;5.50;99.90
16674;DHT22;8450;52.654;10.326;2023-02-01T11:09:08;5.40;99.90
16674;DHT22;8450;52.654;10.326;2023-02-01T11:11:54;5.40;99.90
16674;DHT22;8450;52.654;10.326;2023-02-01T11:14:34;5.50;99.90
16674;DHT22;8450;52.654;10.326;2023-02-01T11:17:12;5.40;99.90
16674;DHT22;8450;52.654;10.326;2023-02-01T11:19:46;5.50;99.90
16674;DHT22;8450;52.654;10.326;2023-02-01T11:22:13;5.50;99.90
16674;DHT22;8450;52.654;10.326;2023-02-01T11:24:40;5.50;99.90
16674;DHT22;8450;52.654;10.326;2023-02-01T11:27:15;5.40;99.90
16674;DHT22;8450;52.654;10.326;2023-02-01T11:29:43;5.40;99.90
16674;DHT22;8450;52.654;10.326;2023-02-01T11:32:12;5.40;99.90
16674;DHT22;8450;52.654;10.326;2023-02-01T11:34:49;5.40;99.90
16674;DHT22;8450;52.654;10.326;2023-02-01T11:37:38;5.40;99.90
16674;DHT22;8450;52.654;10.326;2023-02-01T11:43:16;5.30;99.90
16674;DHT22;8450;52.654;10.326;2023-02-01T11:46:00;5.40;99.90
16674;DHT22;8450;52.654;10.326;2023-02-01T11:48:28;5.30;99.90
16674;DHT22;8450;52.654;10.326;2023-02-01T11:56:40;5.30;99.90
16674;DHT22;8450;52.654;10.326;2023-02-01T11:59:48;5.30;99.90
16674;DHT22;8450;52.654;10.326;2023-02-01T12:02:20;5.30;99.90
16674;DHT22;8450;52.654;10.326;2023-02-01T12:10:37;5.20;99.90
16674;DHT22;8450;52.654;10.326;2023-02-01T12:13:28;5.20;99.90
16674;DHT22;8450;52.654;10.326;2023-02-01T12:55:31;4.70;99.90
16674;DHT22;8450;52.654;10.326;2023-02-01T13:39:39;4.30;99.90
16674;DHT22;8450;52.654;10.326;2023-02-01T13:42:18;4.30;99.90
16674;DHT22;8450;52.654;10.326;2023-02-01T13:44:50;4.30;99.90
16674;DHT22;8450;52.654;10.326;2023-02-01T13:47:23;4.30;99.90
16674;DHT22;8450;52.654;10.326;2023-02-01T13:49:50;4.30;99.90
16674;DHT22;8450;52.654;10.326;2023-02-01T13:52:38;4.20;99.90
16674;DHT22;8450;52.654;10.326;2023-02-01T13:57:41;4.20;99.90
16674;DHT22;8450;52.654;10.326;2023-02-01T14:11:08;4.10;99.90
16674;DHT22;8450;52.654;10.326;2023-02-01T14:13:52;4.00;99.90
16674;DHT22;8450;52.654;10.326;2023-02-01T14:16:17;4.00;99.90
16674;DHT22;8450;52.654;10.326;2023-02-01T14:29:58;4.00;99.90
16674;DHT22;8450;52.654;10.326;2023-02-01T14:32:37;3.90;99.90
16674;DHT22;8450;52.654;10.326;2023-02-01T14:35:07;3.90;99.90
16674;DHT22;8450;52.654;10.326;2023-02-01T14:41:33;3.80;99.90
16674;DHT22;8450;52.654;10.326;2023-02-01T14:47:02;3.80;99.90
16674;DHT22;8450;52.654;10.326;2023-02-01T14:49:33;3.80;99.90
16674;DHT22;8450;52.654;10.326;2023-02-01T14:51:59;3.70;99.90
16674;DHT22;8450;52.654;10.326;2023-02-01T14:54:27;3.70;99.90
16674;DHT22;8450;52.654;10.326;2023-02-01T14:56:54;3.70;99.90
16674;DHT22;8450;52.654;10.326;2023-02-01T14:59:22;3.70;99.90
16674;DHT22;8450;52.654;10.326;2023-02-01T15:01:52;3.70;99.90
16674;DHT22;8450;52.654;10.326;2023-02-01T15:04:19;3.70;99.90
16674;DHT22;8450;52.654;10.326;2023-02-01T15:06:52;3.70;99.90
16674;DHT22;8450;52.654;10.326;2023-02-01T15:09:25;3.70;99.90
16674;DHT22;8450;52.654;10.326;2023-02-01T15:14:45;3.70;99.90
16674;DHT22;8450;52.654;10.326;2023-02-01T15:17:23;3.70;99.90
16674;DHT22;8450;52.654;10.326;2023-02-01T15:19:57;3.70;99.90
16674;DHT22;8450;52.654;10.326;2023-02-01T15:22:23;3.70;99.90
16674;DHT22;8450;52.654;10.326;2023-02-01T15:24:57;3.70;99.90
16674;DHT22;8450;52.654;10.326;2023-02-01T15:27:23;3.70;99.90
16674;DHT22;8450;52.654;10.326;2023-02-01T15:29:48;3.70;99.90
